Aérodrome :
LOGIN :

S'inscrire | Disclaimer

   EN    FR    IT 

 










Légende :    VFR   VFR Marginal   IFR   IFR Intensif   IFR Très Intensif
Visi : 
Plafond : 
>= 8 km
>= 3000ft
5 à 8 km
1000 à 3000 ft
1500m à 5 km
500 à 1000 ft
800 à 1500m
200 à 500 ft
< 800m
< 200 ft
Symboles :   Orages  Brouillard  Fortes neiges  Fortes précipitations  Vent > 20 kt
SIGMETs :   Divers  Orages  Givrage  Turbulence  Onde Orograph.  Cendres Volcan.







- Altitude de l'aérodrome : 124 ft
- Code IATA : RNS
- Voir les cartes d'approche


LFRN - Rennes

DERNIER METAR :
  • 201230Z AUTO 34005KT 300V030 9999 FEW030 BKN066 BKN092 17/12 Q1014 TEMPO 3000 TSRA BKN020CB

METARs EXPIRÉS :
  • 201200Z AUTO 30006KT 9999 FEW023 SCT039 OVC062 16/12 Q1014 TEMPO 3000 TSRA BKN020CB
  • 201130Z AUTO 30005KT 260V340 9999 FEW023/// SCT038/// BKN062/// ///TCU 16/12 Q1014 TEMPO 3000 TSRA BKN020CB
  • 201100Z AUTO 34003KT 280V050 9999 SCT021 OVC058 16/12 Q1014 TEMPO 3000 TSRA BKN020CB
  • 201030Z AUTO 31004KT 280V360 9999 FEW019 BKN058 OVC070 15/11 Q1014 TEMPO 3000 TSRA BKN020CB
  • 201000Z AUTO 31004KT 270V350 9999 SCT017 SCT060 BKN070 15/12 Q1014 TEMPO 4000 SHRA BKN020TCU

TAF TAF LFRN
Valide du 20 à 12h jusqu'au 21 à 12h UTC


201100Z 2012/2112 34005KT 9999 BKN020
TEMPO 2012/2017 4000 SHRA BKN020TCU
PROB30
TEMPO 2012/2015 3000 TSRA BKN020CB
BECMG 2022/2024 3000 BR
TEMPO 2102/2107 0400 FG VV///
BECMG 2107/2109 9999 BKN020
ATIS : +33 2 99 67 72 50
Pas de NOTAMs connus pour ce terrain.



MET'MAP, la Météo Aéronautique d'un coup d'oeil ! - Copyright ORBIFLY Décembre 2007 - Disclaimer

ORBIFLY MET'MAP TEAM :

Programmation & Développement : Alexandra Zaïnal
Conception & Développement : Baudouin d'Aumeries
Co-Programmation & Développement : Marc-Olivier Méhu
Soutien technique & logistique : Manuel Goepfert

Contact : metmap@orbifly.com




SOURCES & CREDITS :

   NOAA